Axtell, NE

6:27 AM CDT on May 06, 2015 (GMT -0500)
Hildreth | | Change Station
CLOSE
Current Station
Personal Weather Station
Location: Hildreth, NE
Elevation: 2198 ft
Nearby Weather Stations

Elev 2198 ft 40.33 °N, 99.05 °W | Updated 12 minutes ago

Overcast
Overcast
59.7 °F
Feels Like 59.7 °F
N
7.3
Wind Variable Wind from East

Today
High -- | Low -- °F
--% Chance of Precip.
Yesterday
High -- | Low -- °F
Precip. -- in
6:29 AM 8:37 PM
Waning Gibbous, 94% visible
Pressure 29.75 in
Visibility 10.0 miles
Clouds Scattered Clouds 1400 ft
Overcast 2200 ft
Dew Point 58 °F
Humidity 95%
Rainfall 0.02 in
Snow Depth Not available.
UV 0 out of 12
Pollen 8.20 out of 12
Air Quality Not available.
Flu Activity Local Activity
METAR KHDE 061115Z AUTO 14012KT 10SM SCT014 OVC022 15/14 A2975 RMK AO2 T01530141

More Conditions Fewer Conditions

Pressure 29.75 in
Visibility 10.0 miles
Clouds Scattered Clouds 1400 ft
Overcast 2200 ft
Dew Point 58 °F
Humidity 95%
Rainfall 0.02 in
Snow Depth Not available.
UV 0 out of 12
Pollen 8.20 out of 12
Air Quality Not available.
Flu Activity Local Activity
METAR KHDE 061115Z AUTO 14012KT 10SM SCT014 OVC022 15/14 A2975 RMK AO2 T01530141

More Conditions Fewer Conditions

10-Day Weather Forecast

Almanac

Astronomy

May. 06, 2015 Rise Set
Actual Time
Civil Twilight
Nautical Twilight
Astronomical Twilight
Moon
Length of Visible Light
Length of Day
Tomorrow will be .
, % of the Moon is Illuminated

Today's Extremes

State Highs State Lows

Community

WunderPhotos

Upload Photos

1,818,879 photos uploaded!

WunderBlogs® & News

Nearby

Air Quality

  Air Quality AQ Index Pollutant
Not available.

Snow Depth

Station Depth Elevation

Earthquake Activity

City Distance Mag. Time & Date
Minimum magnitude displayed is 2.5.

Coastal Water Temperatures

Place Temperature

Stations

Nearby Weather Stations

Station Location Temp. Windchill Dew Point Humidity Wind Precip. Elev Updated Type